Terminal Aerodrome Forecast
Issued by NWS Sterling, VA

Home | Current Version | Previous Version | Text Only | Print | Product List | Glossary On
Versions: 1 2 3 4 5 6 7 8 9 10 11 12 13 14
000
FTUS41 KLWX 201800 AAA
TAFMRB
TAF AMD
KMRB 201839Z 2019/2118 17007KT P6SM VCTS BKN050CB
     FM202200 18007KT P6SM VCTS BKN050CB
     FM210000 18006KT P6SM BKN050
     FM210600 VRB03KT 5SM BR FEW015 SCT050
     FM210900 00000KT 2SM BR FEW015 SCT050
     FM211300 VRB03KT 5SM BR FEW015 SCT050
     FM211400 30004KT P6SM SCT050
     FM211700 28005KT P6SM BKN050=

USA.gov is the U.S. government's official web portal to all federal, state and local government web resources and services.